createdAt,value
2019-02-15T00:00:28.692Z,9.10
2019-02-15T00:03:00.298Z,9.00
2019-02-15T00:05:31.187Z,8.10
2019-02-15T00:08:02.110Z,7.60
2019-02-15T00:10:33.166Z,8.23
2019-02-15T00:13:13.038Z,8.90
2019-02-15T00:15:37.641Z,7.67
2019-02-15T00:18:33.160Z,7.73
2019-02-15T00:21:32.273Z,8.57
2019-02-15T00:24:03.289Z,7.60
2019-02-15T00:26:34.210Z,7.60
2019-02-15T00:29:05.143Z,7.57
2019-02-15T00:31:36.064Z,7.30
2019-02-15T00:34:07.290Z,8.13
2019-02-15T00:36:38.227Z,7.33
2019-02-15T00:39:09.437Z,7.80
2019-02-15T00:41:40.325Z,8.00
2019-02-15T00:44:11.318Z,7.43
2019-02-15T00:47:03.906Z,7.77
2019-02-15T00:49:49.438Z,7.30
2019-02-15T00:52:45.039Z,7.83
2019-02-15T00:55:33.909Z,7.60
2019-02-15T00:58:19.458Z,7.43
2019-02-15T01:01:09.251Z,6.77
2019-02-15T01:03:46.388Z,7.33
2019-02-15T01:06:34.711Z,8.17
2019-02-15T01:09:40.798Z,6.87
2019-02-15T01:12:15.464Z,7.87
2019-02-15T01:14:46.504Z,8.10
2019-02-15T01:17:17.385Z,7.90
2019-02-15T01:19:48.897Z,9.63
2019-02-15T01:22:19.817Z,8.57
2019-02-15T01:24:50.762Z,8.57
2019-02-15T01:27:41.364Z,7.97
2019-02-15T01:30:29.789Z,9.20
2019-02-15T01:33:18.012Z,8.40
2019-02-15T01:35:59.211Z,7.80
2019-02-15T01:39:01.172Z,8.47
2019-02-15T01:41:48.929Z,8.87
2019-02-15T01:44:31.335Z,8.50
2019-02-15T01:47:06.157Z,9.33
2019-02-15T01:49:37.152Z,8.47
2019-02-15T01:52:08.060Z,8.60
2019-02-15T01:54:39.044Z,8.07
2019-02-15T01:57:10.089Z,8.20
2019-02-15T01:59:40.995Z,8.20
2019-02-15T02:02:12.032Z,8.30
2019-02-15T02:04:42.942Z,8.23
2019-02-15T02:07:13.906Z,8.40
2019-02-15T02:09:44.883Z,8.53
2019-02-15T02:12:16.078Z,8.80
2019-02-15T02:14:47.142Z,8.20
2019-02-15T02:17:18.076Z,8.23
2019-02-15T02:19:49.102Z,7.70
2019-02-15T02:22:20.091Z,7.60
2019-02-15T02:24:51.030Z,7.23
2019-02-15T02:27:22.267Z,8.77
2019-02-15T02:29:53.158Z,7.00
2019-02-15T02:32:24.137Z,7.60
2019-02-15T02:34:55.055Z,7.10
2019-02-15T02:37:26.245Z,8.03
2019-02-15T02:39:57.175Z,7.90
2019-02-15T02:42:28.103Z,7.27
2019-02-15T02:44:59.720Z,7.37
2019-02-15T02:47:30.614Z,8.53
2019-02-15T02:50:01.895Z,7.60
2019-02-15T02:52:32.986Z,8.43
2019-02-15T02:55:04.308Z,7.73
2019-02-15T02:57:35.615Z,6.70
2019-02-15T03:00:07.086Z,8.70
2019-02-15T03:02:38.066Z,8.20
2019-02-15T03:05:09.126Z,8.20
2019-02-15T03:07:40.066Z,8.70
2019-02-15T03:10:11.118Z,7.80
2019-02-15T03:12:42.120Z,8.20
2019-02-15T03:15:13.323Z,8.20
2019-02-15T03:17:44.590Z,7.90
2019-02-15T03:20:15.486Z,8.17
2019-02-15T03:22:46.426Z,8.30
2019-02-15T03:25:17.345Z,7.97
2019-02-15T03:27:48.558Z,7.80
2019-02-15T03:30:19.508Z,8.27
2019-02-15T03:32:50.417Z,7.87
2019-02-15T03:35:21.709Z,8.57
2019-02-15T03:37:58.061Z,7.50
2019-02-15T03:40:43.721Z,8.37
2019-02-15T03:43:14.608Z,7.53
2019-02-15T03:45:46.495Z,7.60
2019-02-15T03:48:17.413Z,6.90
2019-02-15T03:50:48.631Z,7.70
2019-02-15T03:53:19.953Z,7.80
2019-02-15T03:55:50.942Z,7.43
2019-02-15T03:58:21.927Z,8.50
2019-02-15T04:00:52.952Z,7.20
2019-02-15T04:03:23.852Z,8.30
2019-02-15T04:05:54.874Z,8.53
2019-02-15T04:08:25.802Z,7.73
2019-02-15T04:10:56.994Z,8.60
2019-02-15T04:13:27.926Z,7.00
2019-02-15T04:15:58.891Z,7.67
2019-02-15T04:18:30.180Z,7.90
2019-02-15T04:21:01.428Z,7.20
2019-02-15T04:23:32.394Z,8.40
2019-02-15T04:26:03.391Z,7.90
2019-02-15T04:28:34.340Z,7.03
2019-02-15T04:31:05.383Z,8.43
2019-02-15T04:33:36.680Z,7.50
2019-02-15T04:36:07.686Z,7.80
2019-02-15T04:38:38.613Z,8.30
2019-02-15T04:41:09.528Z,8.20
2019-02-15T04:43:40.501Z,7.73
2019-02-15T04:46:11.406Z,9.10
2019-02-15T04:48:42.485Z,8.13
2019-02-15T04:51:13.776Z,8.70
2019-02-15T04:53:44.670Z,7.13
2019-02-15T04:56:15.628Z,8.60
2019-02-15T04:58:46.515Z,8.97
2019-02-15T05:01:17.437Z,8.67
2019-02-15T05:03:48.395Z,8.40
2019-02-15T05:06:19.643Z,8.03
2019-02-15T05:08:50.637Z,8.30
2019-02-15T05:11:21.560Z,7.67
2019-02-15T05:13:52.471Z,8.10
2019-02-15T05:16:23.480Z,8.43
2019-02-15T05:18:54.372Z,7.43
2019-02-15T05:21:25.364Z,8.20
2019-02-15T05:23:56.358Z,8.30
2019-02-15T05:26:27.567Z,7.90
2019-02-15T05:28:58.494Z,7.97
2019-02-15T05:31:29.465Z,8.77
2019-02-15T05:34:00.810Z,7.73
2019-02-15T05:36:31.785Z,7.83
2019-02-15T05:39:02.699Z,7.40
2019-02-15T05:41:33.664Z,7.67
2019-02-15T05:44:04.593Z,8.23
2019-02-15T05:46:35.625Z,8.40
2019-02-15T05:49:06.930Z,8.20
2019-02-15T05:51:37.905Z,7.97
2019-02-15T05:54:09.318Z,8.27
2019-02-15T05:56:40.611Z,7.10
2019-02-15T05:59:11.572Z,7.13
2019-02-15T06:01:42.577Z,6.83
2019-02-15T06:04:13.545Z,7.93
2019-02-15T06:06:44.532Z,7.70
2019-02-15T06:09:15.495Z,8.40
2019-02-15T06:11:46.449Z,6.83
2019-02-15T06:14:17.685Z,7.07
2019-02-15T06:16:48.660Z,7.90
2019-02-15T06:19:19.658Z,7.83
2019-02-15T06:21:50.619Z,7.03
2019-02-15T06:24:21.851Z,7.00
2019-02-15T06:26:52.795Z,7.60
2019-02-15T06:29:23.739Z,6.53
2019-02-15T06:31:54.808Z,7.30
2019-02-15T06:34:25.776Z,8.40
2019-02-15T06:36:56.690Z,7.23
2019-02-15T06:39:28.296Z,7.17
2019-02-15T06:41:59.300Z,7.33
2019-02-15T06:44:30.578Z,7.00
2019-02-15T06:47:01.507Z,7.53
2019-02-15T06:49:32.604Z,6.70
2019-02-15T06:52:03.929Z,6.23
2019-02-15T06:54:34.821Z,6.63
2019-02-15T06:57:05.763Z,5.60
2019-02-15T06:59:48.680Z,6.60
2019-02-15T07:02:41.340Z,6.47
2019-02-15T07:05:29.299Z,6.20
2019-02-15T07:08:00.241Z,6.17
2019-02-15T07:10:31.131Z,12.50
2019-02-15T07:13:02.098Z,18.87
2019-02-15T07:15:34.023Z,35.10
2019-02-15T07:18:05.108Z,23.23
2019-02-15T07:20:36.042Z,28.50
2019-02-15T07:23:07.060Z,18.63
2019-02-15T07:25:38.341Z,16.90
2019-02-15T07:28:09.633Z,18.57
2019-02-15T07:30:40.847Z,19.90
2019-02-15T07:33:11.852Z,26.17
2019-02-15T07:35:42.823Z,21.97
2019-02-15T07:38:13.829Z,23.37
2019-02-15T07:40:45.091Z,21.60
2019-02-15T07:43:16.085Z,15.00
2019-02-15T07:45:47.146Z,11.80
2019-02-15T07:48:18.054Z,12.23
2019-02-15T07:50:49.096Z,8.30
2019-02-15T07:53:20.061Z,5.50
2019-02-15T07:55:51.403Z,6.87
2019-02-15T07:58:22.360Z,6.93
2019-02-15T08:00:53.567Z,6.70
2019-02-15T08:03:24.822Z,6.77
2019-02-15T08:05:55.779Z,5.80
2019-02-15T08:08:26.686Z,5.27
2019-02-15T08:10:57.906Z,5.60
2019-02-15T08:13:28.806Z,5.93
2019-02-15T08:16:00.039Z,6.00
2019-02-15T08:18:31.002Z,5.83
2019-02-15T08:21:02.026Z,4.77
2019-02-15T08:23:32.975Z,4.50
2019-02-15T08:26:03.919Z,5.07
2019-02-15T08:28:35.168Z,5.00
2019-02-15T08:31:06.056Z,4.93
2019-02-15T08:33:36.986Z,5.10
2019-02-15T08:36:08.007Z,4.50
2019-02-15T08:38:38.938Z,4.83
2019-02-15T08:41:09.908Z,6.00
2019-02-15T08:43:40.874Z,5.00
2019-02-15T08:46:12.189Z,4.77
2019-02-15T08:48:46.119Z,4.67
2019-02-15T08:51:16.400Z,4.90
2019-02-15T08:53:47.356Z,5.53
2019-02-15T08:56:18.361Z,5.03
2019-02-15T08:58:49.311Z,4.80
2019-02-15T09:01:20.246Z,5.97
2019-02-15T09:03:51.145Z,5.10
2019-02-15T09:06:22.111Z,4.90
2019-02-15T09:08:53.046Z,5.13
2019-02-15T09:11:24.024Z,5.37
2019-02-15T09:13:55.943Z,6.00
2019-02-15T09:16:27.519Z,5.43
2019-02-15T09:18:58.565Z,5.47
2019-02-15T09:21:30.067Z,6.10
2019-02-15T09:24:01.560Z,5.70
2019-02-15T09:26:32.855Z,5.00
2019-02-15T09:29:07.707Z,5.10
2019-02-15T09:31:38.956Z,4.90
2019-02-15T09:34:10.451Z,3.83
2019-02-15T09:36:42.042Z,3.90
2019-02-15T09:39:13.529Z,3.63
2019-02-15T09:41:45.044Z,3.47
2019-02-15T09:44:16.398Z,3.93
2019-02-15T09:46:48.193Z,3.00
2019-02-15T09:49:20.471Z,3.50
2019-02-15T09:51:52.700Z,3.70
2019-02-15T09:54:23.663Z,2.73
2019-02-15T09:56:54.905Z,2.47
2019-02-15T09:59:26.180Z,2.80
2019-02-15T10:01:57.132Z,2.67
2019-02-15T10:04:28.031Z,3.57
2019-02-15T10:06:59.060Z,2.87
2019-02-15T10:09:30.289Z,2.20
2019-02-15T10:12:01.246Z,2.67
2019-02-15T10:14:32.513Z,2.97
2019-02-15T10:17:03.721Z,2.20
2019-02-15T10:19:34.729Z,2.37
2019-02-15T10:22:05.638Z,2.40
2019-02-15T10:24:36.706Z,2.27
2019-02-15T10:27:07.632Z,2.03
2019-02-15T10:29:38.567Z,2.50
2019-02-15T10:32:09.888Z,2.30
2019-02-15T10:34:40.818Z,2.67
2019-02-15T10:37:11.758Z,2.97
2019-02-15T10:39:43.027Z,2.60
2019-02-15T10:42:13.968Z,2.40
2019-02-15T10:44:44.908Z,2.70
2019-02-15T10:47:24.710Z,2.10
2019-02-15T10:49:51.454Z,2.67
2019-02-15T10:52:22.365Z,2.60
2019-02-15T10:54:53.584Z,2.63
2019-02-15T10:57:24.549Z,2.53
2019-02-15T10:59:55.751Z,2.30
2019-02-15T11:02:26.743Z,2.40
2019-02-15T11:04:57.662Z,1.83
2019-02-15T11:07:28.661Z,2.27
2019-02-15T11:09:59.656Z,2.63
2019-02-15T11:12:30.639Z,1.73
2019-02-15T11:15:01.591Z,2.40
2019-02-15T11:17:32.520Z,2.10
2019-02-15T11:20:03.458Z,2.17
2019-02-15T11:22:34.396Z,1.97
2019-02-15T11:25:05.656Z,1.80
2019-02-15T11:27:36.629Z,1.80
2019-02-15T11:30:11.831Z,1.63
2019-02-15T11:32:43.138Z,1.67
2019-02-15T11:35:14.509Z,1.67
2019-02-15T11:37:45.406Z,1.57
2019-02-15T11:40:16.573Z,1.80
2019-02-15T11:42:47.546Z,1.80
2019-02-15T11:45:18.988Z,1.67
2019-02-15T11:47:49.955Z,1.27
2019-02-15T11:50:21.230Z,1.53
2019-02-15T11:52:52.448Z,1.47
2019-02-15T11:55:23.363Z,1.50
2019-02-15T11:57:54.301Z,1.30
2019-02-15T12:00:30.246Z,1.40
2019-02-15T12:03:01.232Z,1.13
2019-02-15T12:05:32.151Z,1.20
2019-02-15T12:08:03.039Z,1.30
2019-02-15T12:10:34.282Z,1.20
2019-02-15T12:13:05.210Z,1.40
2019-02-15T12:15:36.561Z,1.43
2019-02-15T12:18:08.256Z,1.47
2019-02-15T12:20:39.283Z,1.47
2019-02-15T12:23:10.203Z,1.70
2019-02-15T12:25:41.164Z,1.30
2019-02-15T12:28:12.207Z,1.33
2019-02-15T12:30:43.205Z,1.80
2019-02-15T12:33:15.032Z,1.50
2019-02-15T12:35:45.983Z,1.20
2019-02-15T12:38:17.218Z,1.07
2019-02-15T12:40:48.267Z,1.23
2019-02-15T12:43:19.513Z,1.17
2019-02-15T12:45:50.472Z,1.17
2019-02-15T12:48:21.875Z,1.40
2019-02-15T12:50:53.123Z,1.20
2019-02-15T12:53:24.146Z,1.20
2019-02-15T12:55:55.079Z,1.57
2019-02-15T12:58:26.081Z,1.83
2019-02-15T13:00:57.051Z,1.63
2019-02-15T13:03:28.566Z,1.17
2019-02-15T13:05:59.845Z,1.30
2019-02-15T13:08:31.047Z,1.03
2019-02-15T13:11:02.100Z,1.10
2019-02-15T13:13:33.323Z,1.20
2019-02-15T13:16:04.241Z,0.80
2019-02-15T13:18:35.846Z,0.90
2019-02-15T13:21:07.125Z,1.03
2019-02-15T13:23:38.031Z,1.20
2019-02-15T13:26:09.351Z,1.10
2019-02-15T13:28:40.295Z,1.20
2019-02-15T13:31:11.231Z,1.20
2019-02-15T13:33:42.209Z,1.10
2019-02-15T13:36:13.532Z,1.10
2019-02-15T13:38:44.507Z,1.00
2019-02-15T13:41:15.468Z,1.10
2019-02-15T13:43:46.721Z,1.00
2019-02-15T13:46:17.635Z,1.10
2019-02-15T13:48:48.617Z,1.00
2019-02-15T13:51:19.951Z,0.80
2019-02-15T13:53:51.142Z,0.80
2019-02-15T13:56:22.459Z,0.70
2019-02-15T13:58:53.672Z,0.80
2019-02-15T14:01:24.983Z,0.97
2019-02-15T14:03:56.337Z,0.77
2019-02-15T14:06:27.230Z,1.00
2019-02-15T14:08:58.325Z,1.00
2019-02-15T14:11:29.236Z,0.70
2019-02-15T14:14:00.188Z,0.87
2019-02-15T14:16:31.196Z,0.90
2019-02-15T14:19:02.200Z,1.00
2019-02-15T14:21:33.152Z,1.00
2019-02-15T14:24:04.077Z,0.83
2019-02-15T14:26:35.127Z,1.30
2019-02-15T14:29:06.052Z,1.10
2019-02-15T14:31:36.992Z,0.93
2019-02-15T14:34:08.051Z,1.30
2019-02-15T14:36:39.294Z,1.03
2019-02-15T14:39:12.476Z,1.17
2019-02-15T14:41:43.394Z,0.90
2019-02-15T14:44:14.386Z,0.93
2019-02-15T14:46:45.313Z,1.10
2019-02-15T14:49:16.247Z,1.23
2019-02-15T14:51:47.785Z,1.10
2019-02-15T14:54:18.699Z,1.23
2019-02-15T14:56:49.615Z,0.90
2019-02-15T14:59:20.713Z,1.00
2019-02-15T15:01:51.618Z,1.40
2019-02-15T15:04:22.580Z,1.00
2019-02-15T15:06:53.554Z,1.27
2019-02-15T15:09:24.523Z,1.20
2019-02-15T15:11:55.484Z,1.23
2019-02-15T15:14:26.704Z,1.10
2019-02-15T15:16:57.678Z,1.20
2019-02-15T15:19:28.635Z,1.57
2019-02-15T15:21:59.854Z,1.03
2019-02-15T15:24:30.801Z,1.27
2019-02-15T15:27:01.741Z,1.20
2019-02-15T15:29:32.791Z,1.43
2019-02-15T15:32:03.776Z,1.00
2019-02-15T15:34:34.788Z,0.90
2019-02-15T15:37:06.112Z,1.13
2019-02-15T15:39:37.102Z,0.93
2019-02-15T15:42:08.074Z,0.80
2019-02-15T15:44:38.990Z,1.00
2019-02-15T15:47:09.995Z,1.20
2019-02-15T15:49:41.403Z,0.80
2019-02-15T15:52:12.600Z,0.60
2019-02-15T15:54:43.631Z,0.83
2019-02-15T15:57:14.558Z,1.20
2019-02-15T15:59:45.556Z,1.07
2019-02-15T16:02:18.478Z,1.47
2019-02-15T16:04:49.139Z,1.60
2019-02-15T16:07:20.157Z,1.77
2019-02-15T16:09:51.542Z,3.00
2019-02-15T16:12:22.661Z,2.43
2019-02-15T16:14:53.712Z,1.50
2019-02-15T16:17:29.092Z,1.13
2019-02-15T16:20:00.059Z,1.50
2019-02-15T16:22:31.088Z,1.40
2019-02-15T16:25:02.088Z,1.23
2019-02-15T16:27:33.152Z,10.80
2019-02-15T16:30:04.724Z,8.80
2019-02-15T16:32:35.894Z,3.83
2019-02-15T16:35:07.229Z,2.50
2019-02-15T16:37:38.517Z,2.40
2019-02-15T16:40:11.979Z,2.90
2019-02-15T16:42:43.245Z,11.50
2019-02-15T16:45:15.555Z,5.50
2019-02-15T16:47:46.610Z,2.10
2019-02-15T16:50:17.616Z,1.50
2019-02-15T16:52:48.948Z,1.37
2019-02-15T16:55:20.395Z,1.43
2019-02-15T16:57:51.495Z,2.20
2019-02-15T17:00:22.436Z,1.77
2019-02-15T17:02:53.453Z,2.00
2019-02-15T17:05:24.994Z,1.73
2019-02-15T17:07:56.028Z,1.50
2019-02-15T17:10:27.106Z,1.73
2019-02-15T17:12:58.375Z,2.00
2019-02-15T17:15:29.310Z,2.03
2019-02-15T17:18:00.345Z,3.30
2019-02-15T17:20:31.294Z,5.23
2019-02-15T17:23:02.356Z,3.53
2019-02-15T17:25:33.383Z,5.53
2019-02-15T17:28:04.285Z,3.57
2019-02-15T17:30:35.286Z,2.30
2019-02-15T17:33:06.478Z,2.73
2019-02-15T17:35:37.521Z,3.00
2019-02-15T17:38:08.455Z,3.40
2019-02-15T17:40:39.378Z,3.07
2019-02-15T17:43:10.415Z,2.83
2019-02-15T17:45:41.320Z,2.97
2019-02-15T17:48:12.367Z,2.70
2019-02-15T17:50:43.370Z,2.30
2019-02-15T17:53:14.320Z,2.90
2019-02-15T17:55:45.347Z,2.67
2019-02-15T17:58:16.411Z,3.23
2019-02-15T18:00:47.795Z,3.40
2019-02-15T18:03:19.229Z,2.70
2019-02-15T18:05:50.667Z,2.63
2019-02-15T18:08:21.616Z,3.03
2019-02-15T18:10:52.649Z,3.17
2019-02-15T18:13:23.700Z,3.27
2019-02-15T18:15:55.005Z,3.53
2019-02-15T18:18:25.938Z,3.30
2019-02-15T18:20:57.220Z,3.07
2019-02-15T18:23:28.305Z,3.20
2019-02-15T18:25:59.493Z,3.00
2019-02-15T18:28:30.580Z,3.17
2019-02-15T18:31:02.059Z,3.30
2019-02-15T18:33:33.502Z,3.20
2019-02-15T18:36:04.483Z,3.20
2019-02-15T18:38:35.623Z,15.63
2019-02-15T18:41:13.383Z,12.10
2019-02-15T18:43:46.564Z,6.27
2019-02-15T18:46:18.072Z,5.43
2019-02-15T18:48:49.268Z,4.43
2019-02-15T18:51:20.466Z,3.70
2019-02-15T18:53:51.468Z,4.27
2019-02-15T18:56:22.616Z,3.40
2019-02-15T18:58:53.834Z,4.60
2019-02-15T19:01:26.378Z,4.13
2019-02-15T19:03:57.420Z,4.53
2019-02-15T19:06:28.663Z,5.00
2019-02-15T19:09:01.002Z,4.40
2019-02-15T19:11:33.283Z,3.83
2019-02-15T19:14:06.055Z,4.00
2019-02-15T19:16:38.538Z,3.77
2019-02-15T19:19:10.292Z,3.40
2019-02-15T19:21:42.271Z,3.13
2019-02-15T19:24:13.552Z,3.50
2019-02-15T19:26:44.975Z,4.20
2019-02-15T19:29:16.107Z,3.63
2019-02-15T19:31:47.557Z,3.60
2019-02-15T19:34:18.954Z,4.07
2019-02-15T19:36:50.978Z,3.47
2019-02-15T19:39:22.414Z,3.67
2019-02-15T19:41:55.587Z,3.87
2019-02-15T19:44:27.091Z,4.27
2019-02-15T19:46:59.881Z,4.03
2019-02-15T19:49:38.505Z,4.90
2019-02-15T19:52:04.204Z,4.33
2019-02-15T19:54:35.363Z,4.93
2019-02-15T19:57:06.716Z,6.00
2019-02-15T19:59:37.965Z,6.00
2019-02-15T20:02:09.307Z,7.00
2019-02-15T20:04:44.053Z,5.23
2019-02-15T20:07:18.150Z,5.70
2019-02-15T20:09:49.438Z,5.80
2019-02-15T20:12:20.801Z,5.37
2019-02-15T20:14:53.125Z,5.37
2019-02-15T20:17:24.483Z,5.60
2019-02-15T20:19:55.505Z,5.23
2019-02-15T20:22:26.809Z,5.73
2019-02-15T20:24:58.776Z,5.83
2019-02-15T20:27:34.374Z,5.00
2019-02-15T20:30:06.287Z,5.87
2019-02-15T20:32:38.000Z,5.47
2019-02-15T20:35:10.590Z,6.00
2019-02-15T20:37:44.118Z,5.43
2019-02-15T20:40:15.694Z,5.70
2019-02-15T20:42:46.689Z,5.20
2019-02-15T20:45:20.105Z,5.70
2019-02-15T20:47:51.331Z,4.80
2019-02-15T20:50:23.923Z,5.07
2019-02-15T20:53:00.200Z,4.93
2019-02-15T20:55:31.892Z,5.20
2019-02-15T20:58:02.940Z,4.30
2019-02-15T21:00:33.995Z,4.10
2019-02-15T21:03:05.934Z,4.07
2019-02-15T21:05:36.940Z,4.40
2019-02-15T21:08:08.299Z,4.30
2019-02-15T21:10:39.586Z,3.87
2019-02-15T21:13:19.836Z,4.60
2019-02-15T21:15:44.751Z,4.73
2019-02-15T21:18:15.946Z,3.97
2019-02-15T21:20:47.233Z,3.87
2019-02-15T21:23:19.040Z,4.33
2019-02-15T21:25:50.171Z,4.20
2019-02-15T21:28:21.249Z,4.57
2019-02-15T21:30:52.322Z,5.60
2019-02-15T21:33:24.158Z,6.60
2019-02-15T21:35:55.271Z,5.70
2019-02-15T21:38:26.920Z,5.97
2019-02-15T21:40:58.243Z,5.10
2019-02-15T21:43:29.562Z,4.70
2019-02-15T21:46:00.757Z,6.23
2019-02-15T21:48:32.734Z,7.00
2019-02-15T21:51:04.004Z,6.23
2019-02-15T21:53:35.168Z,6.70
2019-02-15T21:56:06.897Z,7.77
2019-02-15T21:58:38.476Z,6.63
2019-02-15T22:01:10.099Z,6.60
2019-02-15T22:03:41.463Z,8.73
2019-02-15T22:06:12.598Z,11.23
2019-02-15T22:08:43.963Z,8.73
2019-02-15T22:11:15.330Z,7.90
2019-02-15T22:13:46.407Z,7.57
2019-02-15T22:16:17.819Z,5.93
2019-02-15T22:18:49.184Z,4.90
2019-02-15T22:21:20.344Z,5.60
2019-02-15T22:23:51.466Z,4.83
2019-02-15T22:26:22.849Z,5.40
2019-02-15T22:28:54.151Z,4.70
2019-02-15T22:31:25.298Z,5.10
2019-02-15T22:33:56.616Z,5.80
2019-02-15T22:36:27.845Z,5.93
2019-02-15T22:38:59.257Z,5.30
2019-02-15T22:41:31.274Z,5.57
2019-02-15T22:44:02.788Z,5.87
2019-02-15T22:46:34.258Z,6.60
2019-02-15T22:49:05.569Z,6.07
2019-02-15T22:51:37.237Z,6.10
2019-02-15T22:54:08.345Z,6.33
2019-02-15T22:56:39.968Z,5.57
2019-02-15T22:59:11.036Z,6.40
2019-02-15T23:01:41.203Z,6.43
2019-02-15T23:04:12.921Z,7.80
2019-02-15T23:06:44.236Z,8.10
2019-02-15T23:09:26.195Z,8.90
2019-02-15T23:11:57.402Z,6.00
2019-02-15T23:14:28.474Z,7.50
2019-02-15T23:16:59.777Z,7.53
2019-02-15T23:19:31.037Z,6.27
2019-02-15T23:22:04.541Z,6.43
2019-02-15T23:24:35.927Z,6.37
2019-02-15T23:27:06.982Z,6.27
2019-02-15T23:29:38.185Z,5.40
2019-02-15T23:32:09.208Z,6.47
2019-02-15T23:34:40.426Z,6.47
2019-02-15T23:37:11.784Z,6.60
2019-02-15T23:39:43.081Z,6.33
2019-02-15T23:42:14.388Z,6.70
2019-02-15T23:44:45.388Z,6.83
2019-02-15T23:47:16.503Z,6.50
2019-02-15T23:49:47.911Z,6.70
2019-02-15T23:52:18.847Z,6.40
2019-02-15T23:54:50.441Z,6.37
2019-02-15T23:57:21.458Z,6.47
2019-02-15T23:59:52.606Z,6.80
